Time;durP1;ratioP1;P1;durP2;ratioP2;P2;SDS_P1;SDS_P2;PMS_P1;PMS_P2;Temp;Humidity;BMP_temperature;BMP_pressure;BME280_temperature;BME280_humidity;BME280_pressure;Samples;Min_cycle;Max_cycle;Signal;HPM_P1;HPM_P2
2021/10/10 00:01:15;;;;;;;5.60;4.10;;;;;;;;;;4525217;28;20084;-61
2021/10/10 00:03:26;;;;;;;6.40;4.30;;;;;;;;;;4526909;28;22137;-62
2021/10/10 00:05:36;;;;;;;7.77;3.93;;;;;;;;;;4510294;28;20521;-61
2021/10/10 00:07:47;;;;;;;5.77;4.03;;;;;;;;;;4526102;28;20041;-61
2021/10/10 00:09:57;;;;;;;5.88;4.07;;;;;;;;;;4526388;28;20047;-61
2021/10/10 00:12:08;;;;;;;7.07;4.27;;;;;;;;;;4526485;28;20041;-61
2021/10/10 00:14:18;;;;;;;7.53;4.60;;;;;;;;;;4527159;28;20033;-61
2021/10/10 00:16:29;;;;;;;6.37;4.07;;;;;;;;;;4526852;28;20042;-61
2021/10/10 00:18:39;;;;;;;7.27;4.60;;;;;;;;;;4493076;28;20101;-61
2021/10/10 00:20:49;;;;;;;8.67;4.77;;;;;;;;;;4508626;28;31622;-61
2021/10/10 00:23:00;;;;;;;7.43;4.57;;;;;;;;;;4527840;28;20099;-61
2021/10/10 00:25:11;;;;;;;7.90;4.47;;;;;;;;;;4527424;28;20037;-62
2021/10/10 00:27:23;;;;;;;6.07;4.40;;;;;;;;;;4526496;28;20041;-61
2021/10/10 00:29:33;;;;;;;7.90;4.97;;;;;;;;;;4519980;28;20352;-61
2021/10/10 00:31:44;;;;;;;6.43;4.30;;;;;;;;;;4527158;28;20879;-61
2021/10/10 00:33:54;;;;;;;6.57;4.70;;;;;;;;;;4509909;28;20056;-61
2021/10/10 00:36:04;;;;;;;6.80;4.67;;;;;;;;;;4528231;28;25617;-61
2021/10/10 00:38:15;;;;;;;6.73;4.43;;;;;;;;;;4527086;28;20029;-61
2021/10/10 00:40:25;;;;;;;7.90;4.97;;;;;;;;;;4527128;28;20041;-61
2021/10/10 00:42:36;;;;;;;6.37;4.27;;;;;;;;;;4525958;28;30597;-61
2021/10/10 00:44:47;;;;;;;6.07;4.13;;;;;;;;;;4526792;28;20037;-61
2021/10/10 00:46:57;;;;;;;8.20;4.38;;;;;;;;;;4527070;28;20124;-61
2021/10/10 00:49:08;;;;;;;6.50;4.47;;;;;;;;;;4527022;28;27269;-61
2021/10/10 00:51:18;;;;;;;6.87;4.77;;;;;;;;;;4526082;28;20037;-62
2021/10/10 00:53:30;;;;;;;5.50;4.10;;;;;;;;;;4512363;28;20050;-61
2021/10/10 00:55:42;;;;;;;6.30;4.40;;;;;;;;;;4514553;28;20017;-61
2021/10/10 00:57:53;;;;;;;7.10;4.78;;;;;;;;;;4527017;28;20184;-61
2021/10/10 01:00:08;;;;;;;7.95;4.88;;;;;;;;;;4512129;28;31170;-61
2021/10/10 01:02:19;;;;;;;6.80;4.50;;;;;;;;;;4526482;28;20051;-61
2021/10/10 01:04:29;;;;;;;6.27;4.47;;;;;;;;;;4508350;28;20625;-62
2021/10/10 01:06:40;;;;;;;8.23;4.40;;;;;;;;;;4526930;28;20059;-61
2021/10/10 01:08:50;;;;;;;7.43;4.90;;;;;;;;;;4527790;28;20115;-61
2021/10/10 01:11:01;;;;;;;7.07;4.60;;;;;;;;;;4527280;28;20128;-61
2021/10/10 01:13:18;;;;;;;8.23;4.93;;;;;;;;;;4527453;28;21354;-61
2021/10/10 01:15:29;;;;;;;7.65;5.03;;;;;;;;;;4525989;28;20029;-61
2021/10/10 01:17:39;;;;;;;7.10;5.03;;;;;;;;;;4513802;28;20045;-61
2021/10/10 01:19:50;;;;;;;7.23;4.37;;;;;;;;;;4509784;28;20164;-61
2021/10/10 01:22:03;;;;;;;6.55;4.78;;;;;;;;;;4526483;28;20045;-61
2021/10/10 01:24:13;;;;;;;8.25;5.10;;;;;;;;;;4526597;28;20137;-61
2021/10/10 01:26:24;;;;;;;6.97;4.80;;;;;;;;;;4526412;28;20204;-61
2021/10/10 01:28:34;;;;;;;7.80;4.50;;;;;;;;;;4509713;28;20030;-61
2021/10/10 01:30:45;;;;;;;8.00;5.10;;;;;;;;;;4525687;28;20440;-61
2021/10/10 01:32:55;;;;;;;7.63;4.67;;;;;;;;;;4526208;28;20132;-61
2021/10/10 01:35:06;;;;;;;7.38;4.78;;;;;;;;;;4526097;28;20047;-61
2021/10/10 01:37:17;;;;;;;6.15;4.43;;;;;;;;;;4525966;28;20037;-61
2021/10/10 01:39:28;;;;;;;6.80;4.47;;;;;;;;;;4528209;28;20029;-62
2021/10/10 01:41:39;;;;;;;6.57;4.28;;;;;;;;;;4524747;28;20975;-61
2021/10/10 01:43:49;;;;;;;7.00;4.87;;;;;;;;;;4510123;28;20029;-62
2021/10/10 01:45:59;;;;;;;7.60;4.90;;;;;;;;;;4524704;28;20168;-61
2021/10/10 01:48:11;;;;;;;7.82;5.40;;;;;;;;;;4508737;28;20058;-61
2021/10/10 01:50:21;;;;;;;7.30;4.60;;;;;;;;;;4524925;28;21225;-61
2021/10/10 01:52:32;;;;;;;7.83;4.90;;;;;;;;;;4525682;28;20266;-61
2021/10/10 01:54:42;;;;;;;7.23;4.53;;;;;;;;;;4525600;28;20045;-61
2021/10/10 01:56:52;;;;;;;7.43;4.20;;;;;;;;;;4525808;28;20083;-61
2021/10/10 01:59:03;;;;;;;6.17;4.40;;;;;;;;;;4524960;28;34975;-61
2021/10/10 02:01:13;;;;;;;6.23;4.40;;;;;;;;;;4527261;28;24980;-61
2021/10/10 02:03:24;;;;;;;6.97;4.53;;;;;;;;;;4529374;28;29590;-61
2021/10/10 02:05:34;;;;;;;6.17;4.40;;;;;;;;;;4529405;28;20124;-61
2021/10/10 02:07:45;;;;;;;6.33;4.27;;;;;;;;;;4517483;28;20128;-61
2021/10/10 02:09:55;;;;;;;6.17;4.20;;;;;;;;;;4528037;28;20586;-61
2021/10/10 02:12:06;;;;;;;5.70;3.87;;;;;;;;;;4528704;28;20044;-61
2021/10/10 02:14:16;;;;;;;7.10;4.50;;;;;;;;;;4529173;28;20046;-61
2021/10/10 02:16:27;;;;;;;7.63;5.00;;;;;;;;;;4529141;28;20045;-61
2021/10/10 02:18:37;;;;;;;5.93;4.13;;;;;;;;;;4529962;28;20350;-61
2021/10/10 02:20:48;;;;;;;7.83;5.00;;;;;;;;;;4512499;28;20040;-61
2021/10/10 02:23:01;;;;;;;5.50;4.40;;;;;;;;;;4530045;28;20214;-61
2021/10/10 02:25:12;;;;;;;6.13;4.33;;;;;;;;;;4510591;28;20084;-61
2021/10/10 02:27:22;;;;;;;6.67;4.70;;;;;;;;;;4529613;28;20041;-61
2021/10/10 02:29:32;;;;;;;6.40;4.40;;;;;;;;;;4528267;28;20082;-61
2021/10/10 02:31:43;;;;;;;6.57;4.73;;;;;;;;;;4510386;28;20609;-61
2021/10/10 02:33:53;;;;;;;5.63;4.23;;;;;;;;;;4512267;28;20033;-61
2021/10/10 02:36:04;;;;;;;6.80;4.77;;;;;;;;;;4529455;28;20037;-62
2021/10/10 02:38:14;;;;;;;6.40;4.20;;;;;;;;;;4530510;28;21012;-61
2021/10/10 02:40:25;;;;;;;7.20;4.53;;;;;;;;;;4511584;28;20052;-61
2021/10/10 02:42:35;;;;;;;6.87;4.60;;;;;;;;;;4528348;28;20119;-62
2021/10/10 02:44:46;;;;;;;8.37;4.87;;;;;;;;;;4528569;28;20033;-61
2021/10/10 02:46:56;;;;;;;8.10;4.67;;;;;;;;;;4526752;28;20037;-61
2021/10/10 02:49:07;;;;;;;6.37;4.10;;;;;;;;;;4512020;28;20033;-61
2021/10/10 02:51:17;;;;;;;7.17;4.97;;;;;;;;;;4529638;28;20112;-61
2021/10/10 02:53:27;;;;;;;8.40;5.13;;;;;;;;;;4529140;28;20044;-61
2021/10/10 02:55:38;;;;;;;7.33;4.73;;;;;;;;;;4510958;28;27363;-61
2021/10/10 02:57:51;;;;;;;7.32;4.93;;;;;;;;;;4512040;28;20588;-62
2021/10/10 03:00:04;;;;;;;6.43;4.70;;;;;;;;;;4528509;28;20124;-62
2021/10/10 03:02:14;;;;;;;6.85;4.38;;;;;;;;;;4527596;28;20044;-61
2021/10/10 03:04:25;;;;;;;6.90;4.57;;;;;;;;;;4526425;28;38346;-61
2021/10/10 03:06:35;;;;;;;7.73;4.37;;;;;;;;;;4528374;28;24847;-62
2021/10/10 03:08:46;;;;;;;6.93;4.80;;;;;;;;;;4510589;28;20053;-61
2021/10/10 03:10:56;;;;;;;8.03;4.60;;;;;;;;;;4515554;28;24258;-62
2021/10/10 03:13:06;;;;;;;6.97;4.70;;;;;;;;;;4529257;28;32231;-61
2021/10/10 03:15:17;;;;;;;7.03;4.93;;;;;;;;;;4527708;28;20067;-61
2021/10/10 03:17:28;;;;;;;7.13;4.55;;;;;;;;;;4528206;28;20037;-61
2021/10/10 03:19:38;;;;;;;6.73;4.67;;;;;;;;;;4527272;28;20156;-61
2021/10/10 03:21:49;;;;;;;5.90;4.40;;;;;;;;;;4526724;28;31187;-62
2021/10/10 03:23:59;;;;;;;7.17;4.90;;;;;;;;;;4527396;28;20044;-61
2021/10/10 03:26:11;;;;;;;6.83;4.87;;;;;;;;;;4514448;28;20224;-61
2021/10/10 03:28:22;;;;;;;6.72;4.35;;;;;;;;;;4529027;28;20038;-61
2021/10/10 03:30:32;;;;;;;5.87;4.00;;;;;;;;;;4527077;28;20434;-62
2021/10/10 03:32:43;;;;;;;6.47;4.60;;;;;;;;;;4511211;28;20038;-61
2021/10/10 03:34:53;;;;;;;5.87;4.13;;;;;;;;;;4511183;28;20034;-61
2021/10/10 03:37:03;;;;;;;7.10;4.40;;;;;;;;;;4527667;28;20124;-61
2021/10/10 03:39:14;;;;;;;8.43;5.27;;;;;;;;;;4528451;28;21389;-61
2021/10/10 03:41:24;;;;;;;6.33;4.57;;;;;;;;;;4527891;28;20034;-61
2021/10/10 03:43:35;;;;;;;6.23;4.73;;;;;;;;;;4515327;28;31902;-61
2021/10/10 03:45:45;;;;;;;5.82;4.25;;;;;;;;;;4527470;28;20037;-61
2021/10/10 03:47:56;;;;;;;5.70;4.27;;;;;;;;;;4527999;28;20068;-61
2021/10/10 03:50:07;;;;;;;6.60;4.57;;;;;;;;;;4503317;28;34041;-62
2021/10/10 03:52:18;;;;;;;6.85;4.90;;;;;;;;;;4527674;28;20509;-61
2021/10/10 03:56:38;;;;;;;7.27;4.33;;;;;;;;;;4526936;28;20069;-61
2021/10/10 03:58:49;;;;;;;5.87;4.80;;;;;;;;;;4510399;28;20066;-61
2021/10/10 04:00:59;;;;;;;6.47;4.83;;;;;;;;;;4527264;28;20127;-61
2021/10/10 04:03:11;;;;;;;6.03;4.30;;;;;;;;;;4526910;28;20049;-61
2021/10/10 04:05:39;;;;;;;;;;;;;;;;;;4515199;28;20061;-62
2021/10/10 04:07:49;;;;;;;6.88;4.53;;;;;;;;;;4527244;28;19921;-61
2021/10/10 04:10:00;;;;;;;6.37;4.70;;;;;;;;;;4527857;28;20379;-61
2021/10/10 04:12:10;;;;;;;5.67;4.33;;;;;;;;;;4526613;28;27935;-61
2021/10/10 04:14:21;;;;;;;6.57;4.50;;;;;;;;;;4528510;28;20120;-61
2021/10/10 04:16:31;;;;;;;6.97;4.80;;;;;;;;;;4513606;28;20030;-61
2021/10/10 04:18:42;;;;;;;6.40;4.43;;;;;;;;;;4526197;28;20779;-61
2021/10/10 04:20:52;;;;;;;5.67;4.30;;;;;;;;;;4495735;28;20070;-61
2021/10/10 04:23:03;;;;;;;5.37;4.20;;;;;;;;;;4526563;28;27195;-62
2021/10/10 04:25:14;;;;;;;6.60;4.53;;;;;;;;;;4527923;28;20075;-61
2021/10/10 04:27:24;;;;;;;7.27;4.77;;;;;;;;;;4509148;28;20506;-61
2021/10/10 04:29:34;;;;;;;6.53;4.57;;;;;;;;;;4526296;28;20275;-61
2021/10/10 04:31:45;;;;;;;6.80;4.40;;;;;;;;;;4515748;28;28682;-61
2021/10/10 04:33:55;;;;;;;5.27;4.13;;;;;;;;;;4527173;28;21701;-62
2021/10/10 04:36:06;;;;;;;8.63;4.63;;;;;;;;;;4518993;28;20061;-61
2021/10/10 04:38:16;;;;;;;7.50;4.70;;;;;;;;;;4525986;28;20049;-61
2021/10/10 04:40:27;;;;;;;6.63;4.63;;;;;;;;;;4508911;28;20038;-61
2021/10/10 04:42:38;;;;;;;6.57;4.40;;;;;;;;;;4526242;28;20025;-62
2021/10/10 04:44:48;;;;;;;6.95;4.88;;;;;;;;;;4526286;28;20069;-61
2021/10/10 04:46:58;;;;;;;6.20;4.50;;;;;;;;;;4525434;28;26298;-61
2021/10/10 04:49:09;;;;;;;7.20;4.70;;;;;;;;;;4508088;28;20167;-61
2021/10/10 04:51:19;;;;;;;6.80;4.93;;;;;;;;;;4525009;28;29655;-61
2021/10/10 04:53:30;;;;;;;6.47;4.50;;;;;;;;;;4527089;28;28922;-61
2021/10/10 04:55:40;;;;;;;7.37;4.90;;;;;;;;;;4528175;28;20036;-61
2021/10/10 04:57:50;;;;;;;6.77;4.63;;;;;;;;;;4525401;28;26181;-61
2021/10/10 05:00:01;;;;;;;6.63;4.20;;;;;;;;;;4528128;28;20038;-61
2021/10/10 05:02:11;;;;;;;6.97;4.63;;;;;;;;;;4516090;28;20049;-61
2021/10/10 05:04:22;;;;;;;6.57;4.70;;;;;;;;;;4524445;28;20084;-61
2021/10/10 05:06:32;;;;;;;7.40;4.93;;;;;;;;;;4531137;28;20042;-61
2021/10/10 05:08:43;;;;;;;7.27;4.90;;;;;;;;;;4525263;28;20187;-61
2021/10/10 05:10:53;;;;;;;6.73;4.87;;;;;;;;;;4525674;28;20029;-61
2021/10/10 05:13:04;;;;;;;7.18;4.70;;;;;;;;;;4525432;28;20033;-61
2021/10/10 05:15:14;;;;;;;6.53;4.67;;;;;;;;;;4527622;28;20128;-61
2021/10/10 05:17:25;;;;;;;7.17;4.73;;;;;;;;;;4527359;28;23758;-61
2021/10/10 05:19:36;;;;;;;7.35;4.80;;;;;;;;;;4524781;28;20268;-61
2021/10/10 05:21:46;;;;;;;5.57;4.40;;;;;;;;;;4525863;28;20439;-61
2021/10/10 05:23:57;;;;;;;6.43;4.80;;;;;;;;;;4507152;28;20060;-61
2021/10/10 05:26:08;;;;;;;7.10;4.60;;;;;;;;;;4508409;28;20044;-62
2021/10/10 05:28:18;;;;;;;6.13;4.47;;;;;;;;;;4508279;28;20044;-61
2021/10/10 05:30:29;;;;;;;5.80;4.40;;;;;;;;;;4526021;28;20040;-61
2021/10/10 05:32:41;;;;;;;6.55;4.45;;;;;;;;;;4522183;28;20038;-61
2021/10/10 05:34:51;;;;;;;7.23;4.67;;;;;;;;;;4514448;28;20577;-61
2021/10/10 05:37:02;;;;;;;8.40;4.40;;;;;;;;;;4511751;28;20038;-61
2021/10/10 05:39:12;;;;;;;7.10;4.47;;;;;;;;;;4529596;28;20532;-61
2021/10/10 05:41:23;;;;;;;6.33;4.73;;;;;;;;;;4528634;28;24030;-62
2021/10/10 05:43:33;;;;;;;6.37;4.60;;;;;;;;;;4514203;28;20658;-61
2021/10/10 05:45:43;;;;;;;6.23;4.50;;;;;;;;;;4528245;28;23805;-61
2021/10/10 05:47:54;;;;;;;7.83;4.57;;;;;;;;;;4529881;28;20103;-62
2021/10/10 05:50:05;;;;;;;8.33;4.60;;;;;;;;;;4527519;28;20042;-62
2021/10/10 05:52:22;;;;;;;6.13;4.15;;;;;;;;;;4528308;28;20091;-62
2021/10/10 05:54:35;;;;;;;6.50;4.35;;;;;;;;;;4527249;28;20685;-61
2021/10/10 05:56:45;;;;;;;7.00;4.63;;;;;;;;;;4529389;28;20045;-61
2021/10/10 05:59:02;;;;;;;6.50;4.50;;;;;;;;;;4528348;28;20464;-61
2021/10/10 06:01:12;;;;;;;6.72;4.65;;;;;;;;;;4530408;28;20037;-62
2021/10/10 06:03:22;;;;;;;6.00;4.40;;;;;;;;;;4514649;28;37046;-62
2021/10/10 06:05:33;;;;;;;6.57;4.43;;;;;;;;;;4527580;28;20037;-62
2021/10/10 06:07:44;;;;;;;7.45;4.95;;;;;;;;;;4514776;28;20060;-61
2021/10/10 06:09:54;;;;;;;6.13;4.07;;;;;;;;;;4526874;28;20176;-61
2021/10/10 06:12:05;;;;;;;5.77;4.23;;;;;;;;;;4510187;28;20049;-61
2021/10/10 06:14:15;;;;;;;6.00;4.30;;;;;;;;;;4512808;28;23115;-61
2021/10/10 06:16:27;;;;;;;6.80;4.60;;;;;;;;;;4526700;28;20473;-61
2021/10/10 06:18:38;;;;;;;5.93;4.38;;;;;;;;;;4524429;28;20095;-61
2021/10/10 06:20:48;;;;;;;7.13;4.60;;;;;;;;;;4529232;28;20064;-61
2021/10/10 06:22:58;;;;;;;6.77;4.60;;;;;;;;;;4527892;28;20034;-61
2021/10/10 06:25:09;;;;;;;7.03;4.60;;;;;;;;;;4528472;28;20033;-61
2021/10/10 06:27:19;;;;;;;6.17;4.17;;;;;;;;;;4526834;28;20547;-61
2021/10/10 06:29:30;;;;;;;7.20;4.77;;;;;;;;;;4527726;28;20029;-61
2021/10/10 06:31:40;;;;;;;6.23;4.27;;;;;;;;;;4497585;28;20065;-61
2021/10/10 06:33:51;;;;;;;7.77;5.10;;;;;;;;;;4512923;28;20787;-61
2021/10/10 06:36:01;;;;;;;7.47;4.63;;;;;;;;;;4511692;28;20034;-61
2021/10/10 06:38:12;;;;;;;6.57;4.60;;;;;;;;;;4526520;28;20412;-61
2021/10/10 06:40:22;;;;;;;6.60;4.40;;;;;;;;;;4521218;28;20061;-61
2021/10/10 06:42:33;;;;;;;6.13;4.40;;;;;;;;;;4526786;28;20041;-61
2021/10/10 06:44:43;;;;;;;6.60;4.70;;;;;;;;;;4527150;28;20063;-61
2021/10/10 06:46:54;;;;;;;5.23;4.00;;;;;;;;;;4525864;28;20110;-61
2021/10/10 06:49:04;;;;;;;6.27;4.20;;;;;;;;;;4527707;28;25970;-61
2021/10/10 06:51:14;;;;;;;7.90;4.97;;;;;;;;;;4528626;28;20116;-61
2021/10/10 06:53:25;;;;;;;7.43;5.23;;;;;;;;;;4527391;28;20029;-61
2021/10/10 06:55:35;;;;;;;7.17;4.90;;;;;;;;;;4530509;28;28542;-61
2021/10/10 06:57:46;;;;;;;6.80;4.83;;;;;;;;;;4527709;28;20021;-62
2021/10/10 07:00:00;;;;;;;6.93;4.70;;;;;;;;;;4528219;28;20749;-63
2021/10/10 07:02:11;;;;;;;6.85;4.57;;;;;;;;;;4512823;28;20042;-63
2021/10/10 07:04:22;;;;;;;7.00;4.30;;;;;;;;;;4509056;28;20034;-63
2021/10/10 07:06:32;;;;;;;8.17;5.10;;;;;;;;;;4527656;28;25273;-63
2021/10/10 07:08:42;;;;;;;7.87;4.53;;;;;;;;;;4527596;28;20113;-64
2021/10/10 07:10:53;;;;;;;7.77;4.47;;;;;;;;;;4526671;28;20065;-63
2021/10/10 07:13:03;;;;;;;6.40;4.63;;;;;;;;;;4528311;28;20235;-64
2021/10/10 07:15:14;;;;;;;5.77;4.00;;;;;;;;;;4528239;28;20036;-64
2021/10/10 07:17:28;;;;;;;6.25;4.30;;;;;;;;;;4528393;28;20489;-64
2021/10/10 07:19:51;;;;;;;5.93;4.50;;;;;;;;;;4528398;28;20032;-61
2021/10/10 07:22:13;;;;;;;6.45;4.47;;;;;;;;;;4527896;28;20040;-61
2021/10/10 07:26:52;;;;;;;6.70;4.53;;;;;;;;;;4527232;28;20584;-64
2021/10/10 07:29:04;;;;;;;8.13;4.90;;;;;;;;;;4495990;28;20038;-63
2021/10/10 07:31:14;;;;;;;7.72;4.93;;;;;;;;;;4526183;28;20655;-66
2021/10/10 07:33:25;;;;;;;6.50;4.40;;;;;;;;;;4528086;28;20052;-62
2021/10/10 07:35:35;;;;;;;6.97;4.23;;;;;;;;;;4519676;28;20491;-61
2021/10/10 07:37:46;;;;;;;6.90;4.83;;;;;;;;;;4510255;28;20121;-62
2021/10/10 07:39:56;;;;;;;5.60;3.80;;;;;;;;;;4528023;28;20030;-63
2021/10/10 07:42:07;;;;;;;5.40;4.30;;;;;;;;;;4528319;28;20041;-63
2021/10/10 07:44:18;;;;;;;7.68;4.22;;;;;;;;;;4502973;28;20099;-64
2021/10/10 07:46:38;;;;;;;7.67;4.23;;;;;;;;;;4526922;28;20022;-63
2021/10/10 07:48:49;;;;;;;6.22;4.20;;;;;;;;;;4528091;28;20668;-63
2021/10/10 07:50:59;;;;;;;5.93;4.23;;;;;;;;;;4526748;28;20106;-63
2021/10/10 07:53:10;;;;;;;7.60;4.57;;;;;;;;;;4507647;28;20338;-63
2021/10/10 07:55:20;;;;;;;5.60;4.17;;;;;;;;;;4519469;28;20042;-63
2021/10/10 07:57:31;;;;;;;6.27;4.40;;;;;;;;;;4526066;28;20033;-63
2021/10/10 07:59:42;;;;;;;5.47;4.10;;;;;;;;;;4526148;28;20033;-63
2021/10/10 08:01:53;;;;;;;6.75;4.53;;;;;;;;;;4507558;28;20048;-63
2021/10/10 08:04:04;;;;;;;6.50;4.03;;;;;;;;;;4526945;28;20045;-63
2021/10/10 08:06:15;;;;;;;7.03;4.27;;;;;;;;;;4509341;28;20496;-63
2021/10/10 08:08:25;;;;;;;7.88;4.60;;;;;;;;;;4508612;28;20038;-63
2021/10/10 08:10:37;;;;;;;4.93;3.57;;;;;;;;;;4526253;28;20034;-63
2021/10/10 08:12:47;;;;;;;7.30;4.35;;;;;;;;;;4507574;28;20045;-61
2021/10/10 08:14:57;;;;;;;6.67;4.30;;;;;;;;;;4512642;28;20544;-63
2021/10/10 08:17:08;;;;;;;4.83;3.50;;;;;;;;;;4526369;28;25249;-61
2021/10/10 08:19:18;;;;;;;6.03;4.23;;;;;;;;;;4525650;28;20498;-61
2021/10/10 08:21:31;;;;;;;6.40;4.10;;;;;;;;;;4508985;28;20033;-61
2021/10/10 08:23:43;;;;;;;6.72;3.63;;;;;;;;;;4525248;28;20603;-62
2021/10/10 08:25:53;;;;;;;6.00;3.85;;;;;;;;;;4526764;28;20069;-61
2021/10/10 08:28:04;;;;;;;5.10;3.77;;;;;;;;;;4527856;28;20128;-61
2021/10/10 08:30:16;;;;;;;5.40;3.70;;;;;;;;;;4527803;28;20037;-61
2021/10/10 08:32:27;;;;;;;5.68;4.10;;;;;;;;;;4526670;28;20028;-61
2021/10/10 08:34:37;;;;;;;5.47;4.00;;;;;;;;;;4524909;28;20571;-61
2021/10/10 08:36:48;;;;;;;5.87;3.73;;;;;;;;;;4526417;28;20037;-61
2021/10/10 08:38:58;;;;;;;6.37;3.87;;;;;;;;;;4512405;28;20034;-61
2021/10/10 08:41:09;;;;;;;6.43;3.80;;;;;;;;;;4507699;28;20037;-61
2021/10/10 08:43:22;;;;;;;7.55;4.28;;;;;;;;;;4526787;28;20183;-61
2021/10/10 08:45:33;;;;;;;6.35;3.88;;;;;;;;;;4526085;28;20040;-61
2021/10/10 08:47:44;;;;;;;4.70;3.60;;;;;;;;;;4527286;28;20869;-61
2021/10/10 08:49:54;;;;;;;6.82;4.03;;;;;;;;;;4513819;28;20120;-61
2021/10/10 08:52:07;;;;;;;6.20;3.90;;;;;;;;;;4518458;28;20037;-61
2021/10/10 08:54:17;;;;;;;5.20;3.80;;;;;;;;;;4525439;28;20037;-61
2021/10/10 08:56:28;;;;;;;5.57;4.00;;;;;;;;;;4525767;28;20025;-61
2021/10/10 08:58:42;;;;;;;6.23;3.90;;;;;;;;;;4526246;28;20140;-61
2021/10/10 09:01:01;;;;;;;6.38;3.92;;;;;;;;;;4515726;28;20041;-61
2021/10/10 09:03:12;;;;;;;6.18;3.95;;;;;;;;;;4524198;28;20606;-61
2021/10/10 09:05:26;;;;;;;5.82;4.10;;;;;;;;;;4523965;28;20039;-61
2021/10/10 09:07:36;;;;;;;5.20;3.80;;;;;;;;;;4518718;28;20721;-61
2021/10/10 09:09:47;;;;;;;6.23;3.83;;;;;;;;;;4508934;28;20029;-60
2021/10/10 09:12:02;;;;;;;6.53;4.10;;;;;;;;;;4526351;28;20500;-61
2021/10/10 09:14:13;;;;;;;6.80;3.83;;;;;;;;;;4526011;28;20034;-61
2021/10/10 09:16:32;;;;;;;6.40;4.20;;;;;;;;;;4527195;28;20405;-61
2021/10/10 09:18:44;;;;;;;6.00;3.97;;;;;;;;;;4518225;28;21353;-61
2021/10/10 09:20:54;;;;;;;5.00;3.42;;;;;;;;;;4508993;28;20041;-61
2021/10/10 09:23:29;;;;;;;6.10;3.90;;;;;;;;;;4511163;28;23089;-61
2021/10/10 09:26:02;;;;;;;4.75;3.38;;;;;;;;;;4501401;28;20048;-61
2021/10/10 09:28:20;;;;;;;6.32;4.20;;;;;;;;;;4525650;28;20046;-61
2021/10/10 09:30:51;;;;;;;5.90;4.05;;;;;;;;;;4518523;28;20127;-61
2021/10/10 09:33:01;;;;;;;6.15;3.85;;;;;;;;;;4524996;28;20038;-61
2021/10/10 09:35:28;;;;;;;5.37;3.73;;;;;;;;;;4509127;28;20577;-61
2021/10/10 09:37:43;;;;;;;6.05;3.97;;;;;;;;;;4527039;28;20109;-61
2021/10/10 09:40:04;;;;;;;5.85;3.70;;;;;;;;;;4526337;28;20033;-61
2021/10/10 09:42:38;;;;;;;7.00;4.05;;;;;;;;;;4526077;28;20115;-60
2021/10/10 09:44:49;;;;;;;7.18;4.00;;;;;;;;;;4512848;28;20124;-61
2021/10/10 09:47:01;;;;;;;;;;;;;;;;;;4524364;28;20569;-61
2021/10/10 09:49:24;;;;;;;5.03;3.60;;;;;;;;;;4525607;28;19917;-61
2021/10/10 09:51:35;;;;;;;6.38;3.70;;;;;;;;;;4511476;28;20655;-60
2021/10/10 09:53:47;;;;;;;6.82;3.70;;;;;;;;;;4525503;28;20032;-60
2021/10/10 09:55:59;;;;;;;5.97;3.75;;;;;;;;;;4526019;28;20607;-60
2021/10/10 09:58:10;;;;;;;5.88;3.60;;;;;;;;;;4526522;28;20104;-60
2021/10/10 10:00:31;;;;;;;5.40;3.30;;;;;;;;;;4524599;28;20141;-60
2021/10/10 10:02:42;;;;;;;5.18;3.50;;;;;;;;;;4523913;28;21569;-61
2021/10/10 10:04:52;;;;;;;5.13;3.50;;;;;;;;;;4525345;28;20028;-60
2021/10/10 10:07:03;;;;;;;5.43;3.23;;;;;;;;;;4526352;28;20316;-60
2021/10/10 10:09:14;;;;;;;5.03;3.40;;;;;;;;;;4525481;28;20238;-60
2021/10/10 10:11:24;;;;;;;5.17;3.40;;;;;;;;;;4526019;28;20392;-61
2021/10/10 10:13:35;;;;;;;5.53;3.57;;;;;;;;;;4525243;28;20548;-60
2021/10/10 10:15:45;;;;;;;5.13;3.70;;;;;;;;;;4510575;28;20149;-62
2021/10/10 10:17:57;;;;;;;4.20;3.03;;;;;;;;;;4525639;28;20271;-62
2021/10/10 10:20:09;;;;;;;5.18;3.40;;;;;;;;;;4525308;28;20611;-62
2021/10/10 10:22:20;;;;;;;5.28;3.42;;;;;;;;;;4511132;28;20620;-60
2021/10/10 10:24:32;;;;;;;4.90;3.00;;;;;;;;;;4515666;28;20130;-60
2021/10/10 10:26:42;;;;;;;4.55;3.05;;;;;;;;;;4521112;28;20054;-60
2021/10/10 10:28:53;;;;;;;6.13;3.57;;;;;;;;;;4529458;28;20033;-60
2021/10/10 10:31:04;;;;;;;5.60;3.35;;;;;;;;;;4527346;28;20040;-61
2021/10/10 10:33:15;;;;;;;6.50;3.33;;;;;;;;;;4510757;28;20786;-60
2021/10/10 10:35:25;;;;;;;4.70;3.10;;;;;;;;;;4528754;28;20033;-60
2021/10/10 10:37:42;;;;;;;5.40;3.43;;;;;;;;;;4510684;28;20034;-61
2021/10/10 10:39:52;;;;;;;5.38;3.40;;;;;;;;;;4527166;28;20045;-60
2021/10/10 10:42:26;;;;;;;6.00;3.30;;;;;;;;;;4526846;28;20072;-60
2021/10/10 10:44:45;;;;;;;5.30;3.40;;;;;;;;;;4527214;28;20045;-60
2021/10/10 10:47:04;;;;;;;5.75;3.35;;;;;;;;;;4520315;28;20123;-60
2021/10/10 10:49:43;;;;;;;5.43;3.30;;;;;;;;;;4526663;28;20115;-60
2021/10/10 10:52:23;;;;;;;5.55;3.47;;;;;;;;;;4526637;28;20544;-59
2021/10/10 10:54:38;;;;;;;5.30;3.15;;;;;;;;;;4527325;28;20049;-60
2021/10/10 10:56:48;;;;;;;3.72;3.00;;;;;;;;;;4527132;28;20026;-60
2021/10/10 10:58:59;;;;;;;4.07;2.83;;;;;;;;;;4526658;28;20045;-60
2021/10/10 11:01:10;;;;;;;4.70;3.10;;;;;;;;;;4526404;28;20029;-60
2021/10/10 11:03:23;;;;;;;4.90;3.03;;;;;;;;;;4508814;28;26733;-59
2021/10/10 11:05:39;;;;;;;4.55;2.90;;;;;;;;;;4526608;28;20576;-60
2021/10/10 11:07:50;;;;;;;4.95;3.13;;;;;;;;;;4526282;28;20048;-59
2021/10/10 11:10:07;;;;;;;4.37;3.00;;;;;;;;;;4526255;28;20080;-60
2021/10/10 11:12:27;;;;;;;5.05;3.17;;;;;;;;;;4528219;28;20033;-59
2021/10/10 11:14:38;;;;;;;4.47;3.08;;;;;;;;;;4526099;28;20115;-60
2021/10/10 11:17:03;;;;;;;4.27;2.90;;;;;;;;;;4525099;28;20091;-60
2021/10/10 11:19:13;;;;;;;4.05;2.63;;;;;;;;;;4510650;28;20030;-60
2021/10/10 11:21:26;;;;;;;3.87;2.77;;;;;;;;;;4525549;28;20041;-59
2021/10/10 11:23:37;;;;;;;4.50;2.97;;;;;;;;;;4508829;28;20056;-60
2021/10/10 11:25:49;;;;;;;4.82;3.08;;;;;;;;;;4510159;28;20635;-60
2021/10/10 11:28:00;;;;;;;4.10;2.50;;;;;;;;;;4509450;28;20052;-59
2021/10/10 11:30:13;;;;;;;4.70;3.20;;;;;;;;;;4526327;28;24145;-60
2021/10/10 11:32:23;;;;;;;3.83;2.60;;;;;;;;;;4525372;28;20036;-60
2021/10/10 11:34:34;;;;;;;4.53;2.80;;;;;;;;;;4512382;28;20048;-60
2021/10/10 11:36:49;;;;;;;4.20;2.73;;;;;;;;;;4526527;28;20041;-60
2021/10/10 11:39:01;;;;;;;5.30;3.00;;;;;;;;;;4526656;28;20565;-60
2021/10/10 11:41:11;;;;;;;4.05;2.92;;;;;;;;;;4509520;28;20042;-60
2021/10/10 11:43:23;;;;;;;4.77;2.90;;;;;;;;;;4527244;28;20033;-60
2021/10/10 11:45:33;;;;;;;4.72;2.90;;;;;;;;;;4519275;28;20059;-60
2021/10/10 11:47:49;;;;;;;4.63;2.80;;;;;;;;;;4529023;28;20620;-60
2021/10/10 11:50:03;;;;;;;6.45;3.28;;;;;;;;;;4527718;28;20103;-60
2021/10/10 11:52:31;;;;;;;4.50;2.80;;;;;;;;;;4527632;28;20069;-60
2021/10/10 11:54:43;;;;;;;5.93;3.30;;;;;;;;;;4525548;28;20029;-60
2021/10/10 11:56:56;;;;;;;5.65;3.25;;;;;;;;;;4525648;28;20124;-60
2021/10/10 11:59:11;;;;;;;5.88;3.28;;;;;;;;;;4526240;28;20045;-60
2021/10/10 12:01:27;;;;;;;4.55;3.10;;;;;;;;;;4519500;28;20933;-60
2021/10/10 12:03:42;;;;;;;4.15;2.72;;;;;;;;;;4509145;28;20588;-60
2021/10/10 12:05:52;;;;;;;4.70;3.13;;;;;;;;;;4517942;28;20635;-60
2021/10/10 12:08:15;;;;;;;4.63;3.00;;;;;;;;;;4510216;28;20391;-60
2021/10/10 12:10:25;;;;;;;4.15;2.85;;;;;;;;;;4514835;28;20041;-60
2021/10/10 12:12:36;;;;;;;5.23;3.17;;;;;;;;;;4508316;28;20397;-60
2021/10/10 12:14:48;;;;;;;4.28;3.00;;;;;;;;;;4509588;28;20041;-60
2021/10/10 12:16:58;;;;;;;4.05;2.75;;;;;;;;;;4525461;28;20115;-60
2021/10/10 12:19:10;;;;;;;4.80;3.10;;;;;;;;;;4509783;28;20124;-60
2021/10/10 12:21:28;;;;;;;4.72;2.80;;;;;;;;;;4525683;28;20064;-60
2021/10/10 12:23:40;;;;;;;4.90;3.00;;;;;;;;;;4517352;28;20581;-62
2021/10/10 12:25:57;;;;;;;4.72;2.97;;;;;;;;;;4525660;28;20152;-60
2021/10/10 12:28:09;;;;;;;5.63;3.00;;;;;;;;;;4513482;28;20041;-60
2021/10/10 12:30:29;;;;;;;5.18;2.78;;;;;;;;;;4527914;28;20767;-60
2021/10/10 12:32:39;;;;;;;4.10;2.72;;;;;;;;;;4527587;28;20064;-60
2021/10/10 12:35:09;;;;;;;3.90;2.70;;;;;;;;;;4527809;28;20080;-60
2021/10/10 12:37:23;;;;;;;5.05;2.65;;;;;;;;;;4526033;28;20045;-60
2021/10/10 12:39:43;;;;;;;5.07;2.95;;;;;;;;;;4526256;28;20140;-61
2021/10/10 12:41:56;;;;;;;4.05;2.72;;;;;;;;;;4527298;28;20571;-60
2021/10/10 12:44:09;;;;;;;4.15;2.58;;;;;;;;;;4508049;28;20034;-60
2021/10/10 12:46:21;;;;;;;4.15;2.60;;;;;;;;;;4527804;28;20029;-60
2021/10/10 12:48:31;;;;;;;4.32;2.70;;;;;;;;;;4515682;28;20034;-60
2021/10/10 12:50:50;;;;;;;4.10;2.63;;;;;;;;;;4508979;28;20041;-60
2021/10/10 12:53:01;;;;;;;4.28;2.60;;;;;;;;;;4526595;28;20040;-60
2021/10/10 12:55:27;;;;;;;4.10;2.60;;;;;;;;;;4525008;28;20041;-61
2021/10/10 12:57:39;;;;;;;5.38;2.60;;;;;;;;;;4526413;28;21028;-61
2021/10/10 12:59:54;;;;;;;3.92;2.60;;;;;;;;;;4524854;28;20033;-62
2021/10/10 13:02:06;;;;;;;5.13;2.72;;;;;;;;;;4518614;28;20033;-60
2021/10/10 13:04:16;;;;;;;3.67;2.70;;;;;;;;;;4526940;28;20021;-60
2021/10/10 13:06:27;;;;;;;4.10;2.80;;;;;;;;;;4525175;28;20046;-60
2021/10/10 13:08:47;;;;;;;4.73;2.87;;;;;;;;;;4527188;28;20402;-60
2021/10/10 13:10:57;;;;;;;3.42;2.50;;;;;;;;;;4525679;28;20115;-60
2021/10/10 13:13:08;;;;;;;3.67;2.57;;;;;;;;;;4525274;28;20095;-60
2021/10/10 13:15:18;;;;;;;4.90;2.90;;;;;;;;;;4525665;28;23614;-59
2021/10/10 13:17:29;;;;;;;4.80;2.50;;;;;;;;;;4525581;28;20048;-61